sensor_id;sensor_type;location;lat;lon;timestamp;P1;durP1;ratioP1;P2;durP2;ratioP2
3733;SDS011;1882;52.256;8.874;2022-10-16T00:01:37;8.20;;;2.90;;
3733;SDS011;1882;52.256;8.874;2022-10-16T00:07:05;6.30;;;2.50;;
3733;SDS011;1882;52.256;8.874;2022-10-16T00:09:31;5.07;;;2.50;;
3733;SDS011;1882;52.256;8.874;2022-10-16T00:12:01;4.57;;;2.93;;
3733;SDS011;1882;52.256;8.874;2022-10-16T00:14:30;4.07;;;3.00;;
3733;SDS011;1882;52.256;8.874;2022-10-16T00:16:56;8.30;;;3.10;;
3733;SDS011;1882;52.256;8.874;2022-10-16T00:19:24;7.33;;;4.27;;
3733;SDS011;1882;52.256;8.874;2022-10-16T00:21:50;8.10;;;3.67;;
3733;SDS011;1882;52.256;8.874;2022-10-16T00:24:20;6.23;;;4.40;;
3733;SDS011;1882;52.256;8.874;2022-10-16T00:26:49;7.20;;;4.70;;
3733;SDS011;1882;52.256;8.874;2022-10-16T00:29:16;5.80;;;4.17;;
3733;SDS011;1882;52.256;8.874;2022-10-16T00:31:45;5.20;;;3.50;;
3733;SDS011;1882;52.256;8.874;2022-10-16T00:34:16;5.73;;;3.73;;
3733;SDS011;1882;52.256;8.874;2022-10-16T00:36:42;6.83;;;4.27;;
3733;SDS011;1882;52.256;8.874;2022-10-16T00:39:11;7.13;;;3.77;;
3733;SDS011;1882;52.256;8.874;2022-10-16T00:41:38;6.00;;;4.13;;
3733;SDS011;1882;52.256;8.874;2022-10-16T00:47:33;9.63;;;4.30;;
3733;SDS011;1882;52.256;8.874;2022-10-16T00:50:07;4.87;;;3.73;;
3733;SDS011;1882;52.256;8.874;2022-10-16T00:52:35;8.30;;;4.20;;
3733;SDS011;1882;52.256;8.874;2022-10-16T00:55:03;6.47;;;4.07;;
3733;SDS011;1882;52.256;8.874;2022-10-16T00:57:31;4.93;;;3.83;;
3733;SDS011;1882;52.256;8.874;2022-10-16T00:59:57;11.10;;;4.60;;
3733;SDS011;1882;52.256;8.874;2022-10-16T01:02:25;11.57;;;5.03;;
3733;SDS011;1882;52.256;8.874;2022-10-16T01:04:52;7.00;;;4.90;;
3733;SDS011;1882;52.256;8.874;2022-10-16T01:10:35;9.60;;;5.30;;
3733;SDS011;1882;52.256;8.874;2022-10-16T01:16:05;8.90;;;5.10;;
3733;SDS011;1882;52.256;8.874;2022-10-16T01:21:07;10.60;;;4.83;;
3733;SDS011;1882;52.256;8.874;2022-10-16T01:26:14;9.90;;;5.70;;
3733;SDS011;1882;52.256;8.874;2022-10-16T01:31:30;9.67;;;5.60;;
3733;SDS011;1882;52.256;8.874;2022-10-16T01:34:20;9.63;;;4.83;;
3733;SDS011;1882;52.256;8.874;2022-10-16T01:36:51;13.83;;;6.03;;
3733;SDS011;1882;52.256;8.874;2022-10-16T01:39:22;16.83;;;5.57;;
3733;SDS011;1882;52.256;8.874;2022-10-16T01:41:54;11.93;;;5.30;;
3733;SDS011;1882;52.256;8.874;2022-10-16T01:44:25;8.27;;;5.20;;
3733;SDS011;1882;52.256;8.874;2022-10-16T01:46:52;12.73;;;5.50;;
3733;SDS011;1882;52.256;8.874;2022-10-16T01:49:21;10.10;;;6.00;;
3733;SDS011;1882;52.256;8.874;2022-10-16T01:51:50;14.17;;;6.10;;
3733;SDS011;1882;52.256;8.874;2022-10-16T01:54:22;14.77;;;5.80;;
3733;SDS011;1882;52.256;8.874;2022-10-16T01:56:52;9.33;;;6.03;;
3733;SDS011;1882;52.256;8.874;2022-10-16T01:59:20;14.93;;;5.80;;
3733;SDS011;1882;52.256;8.874;2022-10-16T02:01:51;8.70;;;5.40;;
3733;SDS011;1882;52.256;8.874;2022-10-16T02:04:21;15.27;;;6.70;;
3733;SDS011;1882;52.256;8.874;2022-10-16T02:06:57;14.40;;;6.13;;
3733;SDS011;1882;52.256;8.874;2022-10-16T02:09:23;13.90;;;6.33;;
3733;SDS011;1882;52.256;8.874;2022-10-16T02:11:53;10.57;;;6.60;;
3733;SDS011;1882;52.256;8.874;2022-10-16T02:14:21;14.70;;;6.20;;
3733;SDS011;1882;52.256;8.874;2022-10-16T02:16:50;17.77;;;6.17;;
3733;SDS011;1882;52.256;8.874;2022-10-16T02:19:17;10.40;;;5.50;;
3733;SDS011;1882;52.256;8.874;2022-10-16T02:24:32;11.43;;;5.37;;
3733;SDS011;1882;52.256;8.874;2022-10-16T02:27:03;9.07;;;5.13;;
3733;SDS011;1882;52.256;8.874;2022-10-16T02:29:47;13.53;;;4.93;;
3733;SDS011;1882;52.256;8.874;2022-10-16T02:32:17;13.60;;;5.07;;
3733;SDS011;1882;52.256;8.874;2022-10-16T02:34:49;11.90;;;5.10;;
3733;SDS011;1882;52.256;8.874;2022-10-16T02:37:17;13.27;;;5.60;;
3733;SDS011;1882;52.256;8.874;2022-10-16T02:39:44;13.90;;;5.97;;
3733;SDS011;1882;52.256;8.874;2022-10-16T02:42:12;11.47;;;5.63;;
3733;SDS011;1882;52.256;8.874;2022-10-16T02:44:39;10.47;;;5.53;;
3733;SDS011;1882;52.256;8.874;2022-10-16T02:47:06;12.87;;;6.43;;
3733;SDS011;1882;52.256;8.874;2022-10-16T02:49:33;11.03;;;5.80;;
3733;SDS011;1882;52.256;8.874;2022-10-16T02:51:59;9.93;;;5.33;;
3733;SDS011;1882;52.256;8.874;2022-10-16T02:54:26;13.47;;;6.03;;
3733;SDS011;1882;52.256;8.874;2022-10-16T02:56:53;9.57;;;5.60;;
3733;SDS011;1882;52.256;8.874;2022-10-16T02:59:25;17.10;;;6.60;;
3733;SDS011;1882;52.256;8.874;2022-10-16T03:01:52;19.03;;;6.43;;
3733;SDS011;1882;52.256;8.874;2022-10-16T03:04:18;14.00;;;6.53;;
3733;SDS011;1882;52.256;8.874;2022-10-16T03:06:45;16.70;;;5.97;;
3733;SDS011;1882;52.256;8.874;2022-10-16T03:09:12;9.87;;;6.20;;
3733;SDS011;1882;52.256;8.874;2022-10-16T03:11:47;12.47;;;6.67;;
3733;SDS011;1882;52.256;8.874;2022-10-16T03:14:13;11.90;;;6.70;;
3733;SDS011;1882;52.256;8.874;2022-10-16T03:16:42;13.50;;;6.13;;
3733;SDS011;1882;52.256;8.874;2022-10-16T03:19:16;15.93;;;5.83;;
3733;SDS011;1882;52.256;8.874;2022-10-16T03:21:44;12.80;;;6.20;;
3733;SDS011;1882;52.256;8.874;2022-10-16T03:24:10;14.90;;;7.10;;
3733;SDS011;1882;52.256;8.874;2022-10-16T03:26:37;13.73;;;7.00;;
3733;SDS011;1882;52.256;8.874;2022-10-16T03:29:06;15.63;;;6.70;;
3733;SDS011;1882;52.256;8.874;2022-10-16T03:31:40;15.37;;;7.57;;
3733;SDS011;1882;52.256;8.874;2022-10-16T03:34:17;14.13;;;6.77;;
3733;SDS011;1882;52.256;8.874;2022-10-16T03:36:44;13.40;;;7.80;;
3733;SDS011;1882;52.256;8.874;2022-10-16T03:39:10;20.37;;;7.53;;
3733;SDS011;1882;52.256;8.874;2022-10-16T03:41:37;14.73;;;7.70;;
3733;SDS011;1882;52.256;8.874;2022-10-16T03:44:04;18.50;;;7.27;;
3733;SDS011;1882;52.256;8.874;2022-10-16T03:46:33;19.10;;;7.10;;
3733;SDS011;1882;52.256;8.874;2022-10-16T03:48:59;11.70;;;7.03;;
3733;SDS011;1882;52.256;8.874;2022-10-16T03:51:29;14.97;;;7.00;;
3733;SDS011;1882;52.256;8.874;2022-10-16T03:53:55;16.80;;;7.20;;
3733;SDS011;1882;52.256;8.874;2022-10-16T03:56:22;14.47;;;7.50;;
3733;SDS011;1882;52.256;8.874;2022-10-16T03:58:51;17.97;;;7.23;;
3733;SDS011;1882;52.256;8.874;2022-10-16T04:01:17;13.80;;;7.57;;
3733;SDS011;1882;52.256;8.874;2022-10-16T04:03:44;17.50;;;6.67;;
3733;SDS011;1882;52.256;8.874;2022-10-16T04:06:11;12.27;;;6.90;;
3733;SDS011;1882;52.256;8.874;2022-10-16T04:08:37;15.07;;;7.03;;
3733;SDS011;1882;52.256;8.874;2022-10-16T04:11:11;20.97;;;7.50;;
3733;SDS011;1882;52.256;8.874;2022-10-16T04:13:38;18.20;;;7.13;;
3733;SDS011;1882;52.256;8.874;2022-10-16T04:16:04;14.60;;;6.13;;
3733;SDS011;1882;52.256;8.874;2022-10-16T04:18:31;12.27;;;6.43;;
3733;SDS011;1882;52.256;8.874;2022-10-16T04:21:02;15.33;;;6.20;;
3733;SDS011;1882;52.256;8.874;2022-10-16T04:23:32;16.53;;;6.80;;
3733;SDS011;1882;52.256;8.874;2022-10-16T04:25:59;15.10;;;7.17;;
3733;SDS011;1882;52.256;8.874;2022-10-16T04:28:25;16.73;;;6.93;;
3733;SDS011;1882;52.256;8.874;2022-10-16T04:30:53;13.03;;;6.53;;
3733;SDS011;1882;52.256;8.874;2022-10-16T04:33:19;12.87;;;6.70;;
3733;SDS011;1882;52.256;8.874;2022-10-16T04:35:58;13.10;;;6.60;;
3733;SDS011;1882;52.256;8.874;2022-10-16T04:38:26;10.80;;;6.17;;
3733;SDS011;1882;52.256;8.874;2022-10-16T04:40:53;13.60;;;6.37;;
3733;SDS011;1882;52.256;8.874;2022-10-16T04:43:19;15.43;;;6.77;;
3733;SDS011;1882;52.256;8.874;2022-10-16T04:45:46;12.80;;;5.90;;
3733;SDS011;1882;52.256;8.874;2022-10-16T04:48:13;8.30;;;6.00;;
3733;SDS011;1882;52.256;8.874;2022-10-16T04:50:40;13.20;;;6.23;;
3733;SDS011;1882;52.256;8.874;2022-10-16T04:53:07;13.10;;;5.90;;
3733;SDS011;1882;52.256;8.874;2022-10-16T04:55:35;9.57;;;5.53;;
3733;SDS011;1882;52.256;8.874;2022-10-16T04:58:02;8.80;;;6.57;;
3733;SDS011;1882;52.256;8.874;2022-10-16T05:00:29;7.50;;;5.70;;
3733;SDS011;1882;52.256;8.874;2022-10-16T05:02:55;11.17;;;6.00;;
3733;SDS011;1882;52.256;8.874;2022-10-16T05:05:23;11.40;;;5.23;;
3733;SDS011;1882;52.256;8.874;2022-10-16T05:07:50;9.67;;;5.13;;
3733;SDS011;1882;52.256;8.874;2022-10-16T05:10:17;10.93;;;4.97;;
3733;SDS011;1882;52.256;8.874;2022-10-16T05:12:44;9.63;;;5.33;;
3733;SDS011;1882;52.256;8.874;2022-10-16T05:15:11;11.43;;;5.87;;
3733;SDS011;1882;52.256;8.874;2022-10-16T05:17:38;6.97;;;5.10;;
3733;SDS011;1882;52.256;8.874;2022-10-16T05:20:10;14.37;;;6.00;;
3733;SDS011;1882;52.256;8.874;2022-10-16T05:22:37;8.77;;;4.90;;
3733;SDS011;1882;52.256;8.874;2022-10-16T05:25:04;8.97;;;5.10;;
3733;SDS011;1882;52.256;8.874;2022-10-16T05:27:31;7.23;;;4.97;;
3733;SDS011;1882;52.256;8.874;2022-10-16T05:29:57;7.70;;;4.57;;
3733;SDS011;1882;52.256;8.874;2022-10-16T05:32:24;7.33;;;4.40;;
3733;SDS011;1882;52.256;8.874;2022-10-16T05:34:50;9.63;;;4.50;;
3733;SDS011;1882;52.256;8.874;2022-10-16T05:37:20;7.70;;;4.13;;
3733;SDS011;1882;52.256;8.874;2022-10-16T05:39:46;8.23;;;4.37;;
3733;SDS011;1882;52.256;8.874;2022-10-16T05:42:13;9.30;;;4.73;;
3733;SDS011;1882;52.256;8.874;2022-10-16T05:44:40;6.43;;;4.43;;
3733;SDS011;1882;52.256;8.874;2022-10-16T05:47:08;7.00;;;4.43;;
3733;SDS011;1882;52.256;8.874;2022-10-16T05:49:34;6.93;;;4.47;;
3733;SDS011;1882;52.256;8.874;2022-10-16T05:52:06;7.40;;;4.30;;
3733;SDS011;1882;52.256;8.874;2022-10-16T05:54:33;4.93;;;4.00;;
3733;SDS011;1882;52.256;8.874;2022-10-16T05:56:59;7.70;;;4.43;;
3733;SDS011;1882;52.256;8.874;2022-10-16T05:59:33;6.87;;;4.03;;
3733;SDS011;1882;52.256;8.874;2022-10-16T06:02:00;8.60;;;3.93;;
3733;SDS011;1882;52.256;8.874;2022-10-16T06:04:27;6.47;;;3.63;;
3733;SDS011;1882;52.256;8.874;2022-10-16T06:06:53;7.23;;;3.73;;
3733;SDS011;1882;52.256;8.874;2022-10-16T06:09:27;6.20;;;3.97;;
3733;SDS011;1882;52.256;8.874;2022-10-16T06:11:57;5.00;;;3.57;;
3733;SDS011;1882;52.256;8.874;2022-10-16T06:14:32;4.70;;;3.60;;
3733;SDS011;1882;52.256;8.874;2022-10-16T06:20:52;3.77;;;3.23;;
3733;SDS011;1882;52.256;8.874;2022-10-16T06:23:57;4.50;;;3.30;;
3733;SDS011;1882;52.256;8.874;2022-10-16T06:26:38;4.30;;;3.63;;
3733;SDS011;1882;52.256;8.874;2022-10-16T06:33:33;3.53;;;3.07;;
3733;SDS011;1882;52.256;8.874;2022-10-16T06:36:14;6.03;;;3.40;;
3733;SDS011;1882;52.256;8.874;2022-10-16T06:38:43;3.97;;;2.83;;
3733;SDS011;1882;52.256;8.874;2022-10-16T06:41:14;7.10;;;3.10;;
3733;SDS011;1882;52.256;8.874;2022-10-16T06:43:42;4.60;;;2.57;;
3733;SDS011;1882;52.256;8.874;2022-10-16T06:46:10;7.97;;;3.10;;
3733;SDS011;1882;52.256;8.874;2022-10-16T06:48:40;3.17;;;2.67;;
3733;SDS011;1882;52.256;8.874;2022-10-16T06:51:17;2.60;;;2.40;;
3733;SDS011;1882;52.256;8.874;2022-10-16T06:53:46;6.40;;;2.50;;
3733;SDS011;1882;52.256;8.874;2022-10-16T06:56:28;2.63;;;2.43;;
3733;SDS011;1882;52.256;8.874;2022-10-16T06:58:57;2.93;;;2.50;;
3733;SDS011;1882;52.256;8.874;2022-10-16T07:01:23;6.40;;;2.17;;
3733;SDS011;1882;52.256;8.874;2022-10-16T07:03:50;2.47;;;2.13;;
3733;SDS011;1882;52.256;8.874;2022-10-16T07:06:18;2.73;;;2.40;;
3733;SDS011;1882;52.256;8.874;2022-10-16T07:08:46;5.73;;;2.50;;
3733;SDS011;1882;52.256;8.874;2022-10-16T07:11:15;3.67;;;2.40;;
3733;SDS011;1882;52.256;8.874;2022-10-16T07:13:43;3.30;;;2.57;;
3733;SDS011;1882;52.256;8.874;2022-10-16T07:16:23;3.13;;;2.10;;
3733;SDS011;1882;52.256;8.874;2022-10-16T07:18:51;2.07;;;1.90;;
3733;SDS011;1882;52.256;8.874;2022-10-16T07:21:23;3.27;;;2.10;;
3733;SDS011;1882;52.256;8.874;2022-10-16T07:23:56;3.20;;;2.10;;
3733;SDS011;1882;52.256;8.874;2022-10-16T07:26:24;2.10;;;1.90;;
3733;SDS011;1882;52.256;8.874;2022-10-16T07:28:52;2.27;;;1.80;;
3733;SDS011;1882;52.256;8.874;2022-10-16T07:31:26;6.23;;;1.97;;
3733;SDS011;1882;52.256;8.874;2022-10-16T07:33:53;2.10;;;1.90;;
3733;SDS011;1882;52.256;8.874;2022-10-16T07:36:20;2.63;;;1.70;;
3733;SDS011;1882;52.256;8.874;2022-10-16T07:38:47;3.10;;;1.83;;
3733;SDS011;1882;52.256;8.874;2022-10-16T07:41:15;2.50;;;1.73;;
3733;SDS011;1882;52.256;8.874;2022-10-16T07:43:50;9.30;;;1.70;;
3733;SDS011;1882;52.256;8.874;2022-10-16T07:46:19;1.90;;;1.80;;
3733;SDS011;1882;52.256;8.874;2022-10-16T07:48:46;3.47;;;2.10;;
3733;SDS011;1882;52.256;8.874;2022-10-16T07:51:14;4.00;;;1.70;;
3733;SDS011;1882;52.256;8.874;2022-10-16T07:53:42;3.83;;;2.30;;
3733;SDS011;1882;52.256;8.874;2022-10-16T07:56:09;1.70;;;1.60;;
3733;SDS011;1882;52.256;8.874;2022-10-16T07:58:36;1.90;;;1.80;;
3733;SDS011;1882;52.256;8.874;2022-10-16T08:01:04;2.80;;;2.10;;
3733;SDS011;1882;52.256;8.874;2022-10-16T08:03:35;2.70;;;1.93;;
3733;SDS011;1882;52.256;8.874;2022-10-16T08:06:02;2.17;;;2.00;;
3733;SDS011;1882;52.256;8.874;2022-10-16T08:08:29;2.37;;;2.17;;
3733;SDS011;1882;52.256;8.874;2022-10-16T08:10:58;2.23;;;1.90;;
3733;SDS011;1882;52.256;8.874;2022-10-16T08:13:25;3.37;;;2.07;;
3733;SDS011;1882;52.256;8.874;2022-10-16T08:15:55;3.33;;;2.20;;
3733;SDS011;1882;52.256;8.874;2022-10-16T08:18:22;2.00;;;1.90;;
3733;SDS011;1882;52.256;8.874;2022-10-16T08:20:54;5.97;;;1.90;;
3733;SDS011;1882;52.256;8.874;2022-10-16T08:23:24;5.10;;;1.90;;
3733;SDS011;1882;52.256;8.874;2022-10-16T08:25:53;1.90;;;1.80;;
3733;SDS011;1882;52.256;8.874;2022-10-16T08:28:20;7.07;;;2.10;;
3733;SDS011;1882;52.256;8.874;2022-10-16T08:30:48;2.30;;;2.10;;
3733;SDS011;1882;52.256;8.874;2022-10-16T08:33:15;2.40;;;1.93;;
3733;SDS011;1882;52.256;8.874;2022-10-16T08:35:42;2.00;;;1.90;;
3733;SDS011;1882;52.256;8.874;2022-10-16T08:38:08;4.07;;;2.43;;
3733;SDS011;1882;52.256;8.874;2022-10-16T08:40:43;2.00;;;1.90;;
3733;SDS011;1882;52.256;8.874;2022-10-16T08:46:44;8.10;;;2.30;;
3733;SDS011;1882;52.256;8.874;2022-10-16T08:49:37;3.30;;;2.00;;
3733;SDS011;1882;52.256;8.874;2022-10-16T08:52:10;2.67;;;2.00;;
3733;SDS011;1882;52.256;8.874;2022-10-16T08:54:45;2.30;;;2.10;;
3733;SDS011;1882;52.256;8.874;2022-10-16T08:57:15;4.37;;;1.93;;
3733;SDS011;1882;52.256;8.874;2022-10-16T08:59:57;5.70;;;2.30;;
3733;SDS011;1882;52.256;8.874;2022-10-16T09:13:56;2.30;;;2.10;;
3733;SDS011;1882;52.256;8.874;2022-10-16T09:16:35;2.73;;;2.03;;
3733;SDS011;1882;52.256;8.874;2022-10-16T09:19:30;2.30;;;2.10;;
3733;SDS011;1882;52.256;8.874;2022-10-16T09:22:01;2.20;;;2.10;;
3733;SDS011;1882;52.256;8.874;2022-10-16T09:24:39;4.83;;;2.27;;
3733;SDS011;1882;52.256;8.874;2022-10-16T09:27:11;2.47;;;2.27;;
3733;SDS011;1882;52.256;8.874;2022-10-16T09:29:38;2.43;;;1.90;;
3733;SDS011;1882;52.256;8.874;2022-10-16T09:32:15;3.67;;;2.00;;
3733;SDS011;1882;52.256;8.874;2022-10-16T09:34:52;3.23;;;2.13;;
3733;SDS011;1882;52.256;8.874;2022-10-16T09:37:21;6.63;;;2.00;;
3733;SDS011;1882;52.256;8.874;2022-10-16T09:39:54;4.63;;;2.60;;
3733;SDS011;1882;52.256;8.874;2022-10-16T09:42:36;5.97;;;2.30;;
3733;SDS011;1882;52.256;8.874;2022-10-16T09:45:03;4.50;;;2.57;;
3733;SDS011;1882;52.256;8.874;2022-10-16T09:47:35;6.57;;;2.53;;
3733;SDS011;1882;52.256;8.874;2022-10-16T09:50:24;5.10;;;2.10;;
3733;SDS011;1882;52.256;8.874;2022-10-16T09:53:12;2.27;;;2.07;;
3733;SDS011;1882;52.256;8.874;2022-10-16T09:55:59;8.83;;;2.63;;
3733;SDS011;1882;52.256;8.874;2022-10-16T09:58:41;5.20;;;2.40;;
3733;SDS011;1882;52.256;8.874;2022-10-16T10:01:12;4.03;;;2.43;;
3733;SDS011;1882;52.256;8.874;2022-10-16T10:03:43;3.53;;;2.30;;
3733;SDS011;1882;52.256;8.874;2022-10-16T10:06:23;3.30;;;2.27;;
3733;SDS011;1882;52.256;8.874;2022-10-16T10:08:59;4.23;;;2.70;;
3733;SDS011;1882;52.256;8.874;2022-10-16T10:14:57;3.43;;;2.00;;
3733;SDS011;1882;52.256;8.874;2022-10-16T10:17:27;7.73;;;2.00;;
3733;SDS011;1882;52.256;8.874;2022-10-16T10:37:10;7.00;;;2.00;;
3733;SDS011;1882;52.256;8.874;2022-10-16T10:39:49;3.53;;;1.87;;
3733;SDS011;1882;52.256;8.874;2022-10-16T10:42:39;3.70;;;2.10;;
3733;SDS011;1882;52.256;8.874;2022-10-16T10:45:18;6.10;;;2.37;;
3733;SDS011;1882;52.256;8.874;2022-10-16T10:48:54;4.70;;;2.30;;
3733;SDS011;1882;52.256;8.874;2022-10-16T10:54:17;5.30;;;2.13;;
3733;SDS011;1882;52.256;8.874;2022-10-16T11:05:23;3.00;;;2.00;;
3733;SDS011;1882;52.256;8.874;2022-10-16T11:07:57;2.13;;;1.97;;
3733;SDS011;1882;52.256;8.874;2022-10-16T11:10:27;2.83;;;2.20;;
3733;SDS011;1882;52.256;8.874;2022-10-16T11:12:58;2.97;;;2.03;;
3733;SDS011;1882;52.256;8.874;2022-10-16T11:15:53;3.83;;;2.00;;
3733;SDS011;1882;52.256;8.874;2022-10-16T11:22:23;5.97;;;2.03;;
3733;SDS011;1882;52.256;8.874;2022-10-16T11:34:01;3.80;;;2.30;;
3733;SDS011;1882;52.256;8.874;2022-10-16T11:36:53;5.50;;;1.90;;
3733;SDS011;1882;52.256;8.874;2022-10-16T11:39:28;4.80;;;2.10;;
3733;SDS011;1882;52.256;8.874;2022-10-16T11:42:10;4.63;;;2.17;;
3733;SDS011;1882;52.256;8.874;2022-10-16T11:47:37;5.63;;;2.00;;
3733;SDS011;1882;52.256;8.874;2022-10-16T11:53:09;3.00;;;2.30;;
3733;SDS011;1882;52.256;8.874;2022-10-16T11:55:43;3.43;;;1.97;;
3733;SDS011;1882;52.256;8.874;2022-10-16T11:58:21;4.67;;;2.10;;
3733;SDS011;1882;52.256;8.874;2022-10-16T12:04:05;5.53;;;2.07;;
3733;SDS011;1882;52.256;8.874;2022-10-16T12:09:03;4.30;;;2.27;;
3733;SDS011;1882;52.256;8.874;2022-10-16T12:11:32;5.07;;;2.07;;
3733;SDS011;1882;52.256;8.874;2022-10-16T12:16:38;2.80;;;2.17;;
3733;SDS011;1882;52.256;8.874;2022-10-16T12:19:17;3.50;;;2.10;;
3733;SDS011;1882;52.256;8.874;2022-10-16T12:21:48;2.17;;;1.97;;
3733;SDS011;1882;52.256;8.874;2022-10-16T12:24:33;6.10;;;2.60;;
3733;SDS011;1882;52.256;8.874;2022-10-16T12:27:03;2.47;;;2.23;;
3733;SDS011;1882;52.256;8.874;2022-10-16T12:31:58;5.73;;;2.00;;
3733;SDS011;1882;52.256;8.874;2022-10-16T12:36:52;3.20;;;1.97;;
3733;SDS011;1882;52.256;8.874;2022-10-16T12:39:20;3.23;;;2.00;;
3733;SDS011;1882;52.256;8.874;2022-10-16T12:42:00;4.70;;;2.40;;
3733;SDS011;1882;52.256;8.874;2022-10-16T12:44:34;2.40;;;2.20;;
3733;SDS011;1882;52.256;8.874;2022-10-16T12:47:03;4.33;;;2.43;;
3733;SDS011;1882;52.256;8.874;2022-10-16T12:49:36;7.07;;;2.23;;
3733;SDS011;1882;52.256;8.874;2022-10-16T12:52:04;7.77;;;2.67;;
3733;SDS011;1882;52.256;8.874;2022-10-16T12:54:52;3.50;;;2.30;;
3733;SDS011;1882;52.256;8.874;2022-10-16T13:12:05;3.80;;;2.53;;
3733;SDS011;1882;52.256;8.874;2022-10-16T13:14:49;3.13;;;2.40;;
3733;SDS011;1882;52.256;8.874;2022-10-16T13:20:29;6.40;;;2.47;;
3733;SDS011;1882;52.256;8.874;2022-10-16T13:28:46;4.90;;;2.10;;
3733;SDS011;1882;52.256;8.874;2022-10-16T13:31:18;3.63;;;2.10;;
3733;SDS011;1882;52.256;8.874;2022-10-16T13:34:02;5.90;;;2.10;;
3733;SDS011;1882;52.256;8.874;2022-10-16T13:36:43;5.87;;;2.07;;
3733;SDS011;1882;52.256;8.874;2022-10-16T13:42:05;2.57;;;1.90;;
3733;SDS011;1882;52.256;8.874;2022-10-16T13:44:49;2.53;;;2.07;;
3733;SDS011;1882;52.256;8.874;2022-10-16T13:47:27;2.20;;;2.00;;
3733;SDS011;1882;52.256;8.874;2022-10-16T13:50:17;5.30;;;1.87;;
3733;SDS011;1882;52.256;8.874;2022-10-16T13:52:44;5.13;;;2.20;;
3733;SDS011;1882;52.256;8.874;2022-10-16T13:55:16;3.43;;;2.00;;
3733;SDS011;1882;52.256;8.874;2022-10-16T13:57:48;7.13;;;2.47;;
3733;SDS011;1882;52.256;8.874;2022-10-16T14:00:21;5.13;;;1.93;;
3733;SDS011;1882;52.256;8.874;2022-10-16T14:02:51;2.70;;;2.17;;
3733;SDS011;1882;52.256;8.874;2022-10-16T14:05:26;3.40;;;1.90;;
3733;SDS011;1882;52.256;8.874;2022-10-16T14:07:53;2.83;;;1.90;;
3733;SDS011;1882;52.256;8.874;2022-10-16T14:10:24;3.63;;;1.77;;
3733;SDS011;1882;52.256;8.874;2022-10-16T14:16:02;2.83;;;2.00;;
3733;SDS011;1882;52.256;8.874;2022-10-16T14:19:12;3.23;;;2.10;;
3733;SDS011;1882;52.256;8.874;2022-10-16T14:22:28;4.60;;;2.20;;
3733;SDS011;1882;52.256;8.874;2022-10-16T14:25:23;5.47;;;2.27;;
3733;SDS011;1882;52.256;8.874;2022-10-16T14:30:37;3.20;;;2.10;;
3733;SDS011;1882;52.256;8.874;2022-10-16T14:33:04;4.83;;;2.23;;
3733;SDS011;1882;52.256;8.874;2022-10-16T14:35:33;3.43;;;2.50;;
3733;SDS011;1882;52.256;8.874;2022-10-16T14:38:02;3.23;;;2.50;;
3733;SDS011;1882;52.256;8.874;2022-10-16T14:40:34;2.20;;;2.10;;
3733;SDS011;1882;52.256;8.874;2022-10-16T14:43:02;4.53;;;2.30;;
3733;SDS011;1882;52.256;8.874;2022-10-16T14:45:30;2.70;;;2.20;;
3733;SDS011;1882;52.256;8.874;2022-10-16T14:48:06;3.93;;;2.30;;
3733;SDS011;1882;52.256;8.874;2022-10-16T14:50:45;3.47;;;2.40;;
3733;SDS011;1882;52.256;8.874;2022-10-16T14:53:12;2.30;;;2.10;;
3733;SDS011;1882;52.256;8.874;2022-10-16T14:55:39;2.53;;;2.27;;
3733;SDS011;1882;52.256;8.874;2022-10-16T14:58:17;3.10;;;2.50;;
3733;SDS011;1882;52.256;8.874;2022-10-16T15:00:45;3.53;;;2.53;;
3733;SDS011;1882;52.256;8.874;2022-10-16T15:03:13;2.80;;;2.60;;
3733;SDS011;1882;52.256;8.874;2022-10-16T15:05:39;3.10;;;2.77;;
3733;SDS011;1882;52.256;8.874;2022-10-16T15:08:06;4.20;;;3.17;;
3733;SDS011;1882;52.256;8.874;2022-10-16T15:10:37;3.70;;;3.00;;
3733;SDS011;1882;52.256;8.874;2022-10-16T15:13:11;5.30;;;2.97;;
3733;SDS011;1882;52.256;8.874;2022-10-16T15:15:41;5.00;;;3.10;;
3733;SDS011;1882;52.256;8.874;2022-10-16T15:18:09;3.90;;;3.57;;
3733;SDS011;1882;52.256;8.874;2022-10-16T15:20:36;6.33;;;3.60;;
3733;SDS011;1882;52.256;8.874;2022-10-16T15:23:14;3.57;;;3.00;;
3733;SDS011;1882;52.256;8.874;2022-10-16T15:28:10;4.47;;;3.23;;
3733;SDS011;1882;52.256;8.874;2022-10-16T15:30:37;3.30;;;3.00;;
3733;SDS011;1882;52.256;8.874;2022-10-16T15:33:04;5.20;;;3.00;;
3733;SDS011;1882;52.256;8.874;2022-10-16T15:35:34;5.20;;;3.63;;
3733;SDS011;1882;52.256;8.874;2022-10-16T15:38:01;3.40;;;3.10;;
3733;SDS011;1882;52.256;8.874;2022-10-16T15:40:28;6.17;;;3.50;;
3733;SDS011;1882;52.256;8.874;2022-10-16T15:42:54;7.97;;;3.97;;
3733;SDS011;1882;52.256;8.874;2022-10-16T15:45:23;3.37;;;3.17;;
3733;SDS011;1882;52.256;8.874;2022-10-16T15:47:50;12.67;;;4.07;;
3733;SDS011;1882;52.256;8.874;2022-10-16T15:50:17;4.33;;;3.93;;
3733;SDS011;1882;52.256;8.874;2022-10-16T15:52:43;6.07;;;4.20;;
3733;SDS011;1882;52.256;8.874;2022-10-16T15:55:11;5.03;;;3.90;;
3733;SDS011;1882;52.256;8.874;2022-10-16T15:57:39;3.97;;;3.50;;
3733;SDS011;1882;52.256;8.874;2022-10-16T16:00:09;4.00;;;3.70;;
3733;SDS011;1882;52.256;8.874;2022-10-16T16:02:38;6.20;;;4.57;;
3733;SDS011;1882;52.256;8.874;2022-10-16T16:05:05;4.60;;;4.30;;
3733;SDS011;1882;52.256;8.874;2022-10-16T16:07:34;6.03;;;4.47;;
3733;SDS011;1882;52.256;8.874;2022-10-16T16:10:02;6.40;;;4.00;;
3733;SDS011;1882;52.256;8.874;2022-10-16T16:12:31;5.57;;;4.20;;
3733;SDS011;1882;52.256;8.874;2022-10-16T16:14:58;4.73;;;4.20;;
3733;SDS011;1882;52.256;8.874;2022-10-16T16:17:30;4.90;;;4.10;;
3733;SDS011;1882;52.256;8.874;2022-10-16T16:19:57;5.00;;;4.60;;
3733;SDS011;1882;52.256;8.874;2022-10-16T16:22:24;6.03;;;4.40;;
3733;SDS011;1882;52.256;8.874;2022-10-16T16:24:52;5.23;;;4.30;;
3733;SDS011;1882;52.256;8.874;2022-10-16T16:27:18;5.03;;;4.23;;
3733;SDS011;1882;52.256;8.874;2022-10-16T16:29:46;4.97;;;4.27;;
3733;SDS011;1882;52.256;8.874;2022-10-16T16:32:13;7.57;;;4.57;;
3733;SDS011;1882;52.256;8.874;2022-10-16T16:34:40;4.83;;;4.43;;
3733;SDS011;1882;52.256;8.874;2022-10-16T16:37:06;5.00;;;4.20;;
3733;SDS011;1882;52.256;8.874;2022-10-16T16:39:33;4.40;;;4.00;;
3733;SDS011;1882;52.256;8.874;2022-10-16T16:42:00;4.27;;;3.87;;
3733;SDS011;1882;52.256;8.874;2022-10-16T16:44:29;4.70;;;4.30;;
3733;SDS011;1882;52.256;8.874;2022-10-16T16:46:56;4.80;;;4.40;;
3733;SDS011;1882;52.256;8.874;2022-10-16T16:49:22;7.43;;;4.47;;
3733;SDS011;1882;52.256;8.874;2022-10-16T16:51:49;7.20;;;4.37;;
3733;SDS011;1882;52.256;8.874;2022-10-16T16:54:16;5.37;;;4.20;;
3733;SDS011;1882;52.256;8.874;2022-10-16T16:56:42;6.10;;;4.00;;
3733;SDS011;1882;52.256;8.874;2022-10-16T16:59:13;4.57;;;4.17;;
3733;SDS011;1882;52.256;8.874;2022-10-16T17:01:41;5.40;;;4.90;;
3733;SDS011;1882;52.256;8.874;2022-10-16T17:04:08;4.70;;;4.30;;
3733;SDS011;1882;52.256;8.874;2022-10-16T17:06:36;6.07;;;5.17;;
3733;SDS011;1882;52.256;8.874;2022-10-16T17:09:04;6.30;;;5.17;;
3733;SDS011;1882;52.256;8.874;2022-10-16T17:11:35;4.43;;;3.90;;
3733;SDS011;1882;52.256;8.874;2022-10-16T17:14:02;5.63;;;4.23;;
3733;SDS011;1882;52.256;8.874;2022-10-16T17:16:30;6.70;;;5.73;;
3733;SDS011;1882;52.256;8.874;2022-10-16T17:19:04;5.20;;;4.70;;
3733;SDS011;1882;52.256;8.874;2022-10-16T17:21:32;7.47;;;4.30;;
3733;SDS011;1882;52.256;8.874;2022-10-16T17:23:59;3.77;;;3.47;;
3733;SDS011;1882;52.256;8.874;2022-10-16T17:26:27;7.50;;;4.43;;
3733;SDS011;1882;52.256;8.874;2022-10-16T17:28:54;5.73;;;3.57;;
3733;SDS011;1882;52.256;8.874;2022-10-16T17:31:23;3.57;;;3.37;;
3733;SDS011;1882;52.256;8.874;2022-10-16T17:33:51;4.03;;;3.57;;
3733;SDS011;1882;52.256;8.874;2022-10-16T17:36:18;4.13;;;3.57;;
3733;SDS011;1882;52.256;8.874;2022-10-16T17:38:45;6.50;;;3.40;;
3733;SDS011;1882;52.256;8.874;2022-10-16T17:41:13;3.93;;;3.50;;
3733;SDS011;1882;52.256;8.874;2022-10-16T17:43:47;4.63;;;3.20;;
3733;SDS011;1882;52.256;8.874;2022-10-16T17:46:14;3.03;;;2.83;;
3733;SDS011;1882;52.256;8.874;2022-10-16T17:48:46;3.00;;;2.80;;
3733;SDS011;1882;52.256;8.874;2022-10-16T17:51:15;4.70;;;3.00;;
3733;SDS011;1882;52.256;8.874;2022-10-16T17:53:46;5.07;;;2.50;;
3733;SDS011;1882;52.256;8.874;2022-10-16T17:56:14;5.20;;;2.50;;
3733;SDS011;1882;52.256;8.874;2022-10-16T17:58:43;3.90;;;2.50;;
3733;SDS011;1882;52.256;8.874;2022-10-16T18:01:19;4.20;;;2.60;;